Williamtown, New South Wales

12:04 AM AEDT on February 14, 2016 (GMT +1100)
PF Technologies | | Change Station
CLOSE
Current Station
Personal Weather Station
Location: Raymond Terrace, NSW
Elevation: 42 ft
Nearby Weather Stations

Elev 42 ft 32.74 °S, 151.76 °E | Updated 3 minutes ago

Clear
Clear
69.8 °F
Feels Like 69.8 °F
N
1.6
Wind Variable Wind from NNE
Gusts 3.8 mph

Today
High -- | Low -- °F
--% Chance of Precip.
Yesterday
High -- | Low -- °F
Precip. -- in
Pressure 29.83 in
Visibility 6.2 miles
Clouds
Dew Point 69 °F
Humidity 98%
Rainfall in
Snow Depth Not available.
6:27 AM 7:45 PM
Waxing Crescent, 30% visible
METAR YWLM 131300Z AUTO 04007KT 9999 // NCD 22/18 Q1010
Pressure 29.83 in
Visibility 6.2 miles
Clouds
Dew Point 69 °F
Humidity 98%
Rainfall in
Snow Depth Not available.
6:27 AM 7:45 PM
Waxing Crescent, 30% visible
METAR YWLM 131300Z AUTO 04007KT 9999 // NCD 22/18 Q1010

10-Day Weather Forecast

Almanac

Astronomy

Feb. 14, 2016 Rise Set
Actual Time
Civil Twilight
Nautical Twilight
Astronomical Twilight
Moon
Length of Visible Light
Length of Day
Tomorrow will be .
, % of the Moon is Illuminated

Today's Extremes

Country Highs Country Lows

Community

WunderPhotos

Upload Photos

1,892,545 photos uploaded!

WunderBlog® & News

Nearby

Air Quality

  Air Quality AQ Index Pollutant
Not available.

Snow Depth

Station Depth Elevation

Earthquake Activity

City Distance Mag. Time & Date
Minimum magnitude displayed is 2.5.

Coastal Water Temperatures

Place Temperature

Stations

Nearby Weather Stations

Station Location Temp. Windchill Dew Point Humidity Wind Precip. Elev Updated Type